createdAt,value
2023-01-08T00:00:21.476Z,0.80
2023-01-08T00:00:44.428Z,0.80
2023-01-08T00:01:07.559Z,0.80
2023-01-08T00:01:30.400Z,0.80
2023-01-08T00:01:53.128Z,0.80
2023-01-08T00:02:15.908Z,0.80
2023-01-08T00:02:38.679Z,0.80
2023-01-08T00:03:03.035Z,0.90
2023-01-08T00:03:26.158Z,0.80
2023-01-08T00:03:49.131Z,0.80
2023-01-08T00:04:12.291Z,0.80
2023-01-08T00:04:35.140Z,0.80
2023-01-08T00:04:58.019Z,0.80
2023-01-08T00:05:20.812Z,0.80
2023-01-08T00:05:43.553Z,0.70
2023-01-08T00:06:07.615Z,0.80
2023-01-08T00:06:31.537Z,0.80
2023-01-08T00:06:54.631Z,0.70
2023-01-08T00:07:17.402Z,0.70
2023-01-08T00:07:40.669Z,0.80
2023-01-08T00:08:03.399Z,0.80
2023-01-08T00:08:26.133Z,0.80
2023-01-08T00:08:49.939Z,0.80
2023-01-08T00:09:13.153Z,0.80
2023-01-08T00:09:36.180Z,0.80
2023-01-08T00:09:58.979Z,0.80
2023-01-08T00:10:21.826Z,0.80
2023-01-08T00:10:47.076Z,0.80
2023-01-08T00:11:10.040Z,0.80
2023-01-08T00:11:32.920Z,0.80
2023-01-08T00:11:55.687Z,0.80
2023-01-08T00:12:18.574Z,0.70
2023-01-08T00:12:42.034Z,0.70
2023-01-08T00:13:04.888Z,0.70
2023-01-08T00:13:27.693Z,0.70
2023-01-08T00:13:50.409Z,0.70
2023-01-08T00:14:13.151Z,0.60
2023-01-08T00:14:35.984Z,0.60
2023-01-08T00:14:58.756Z,0.60
2023-01-08T00:15:21.549Z,0.60
2023-01-08T00:15:44.481Z,0.50
2023-01-08T00:16:11.216Z,0.50
2023-01-08T00:16:34.039Z,0.50
2023-01-08T00:16:56.931Z,0.50
2023-01-08T00:17:20.027Z,0.50
2023-01-08T00:17:45.906Z,0.50
2023-01-08T00:18:10.300Z,0.50
2023-01-08T00:18:33.092Z,0.50
2023-01-08T00:18:55.836Z,0.50
2023-01-08T00:19:18.637Z,0.50
2023-01-08T00:19:42.299Z,0.50
2023-01-08T00:20:06.889Z,0.50
2023-01-08T00:20:29.894Z,0.50
2023-01-08T00:20:52.798Z,0.50
2023-01-08T00:21:15.537Z,0.50
2023-01-08T00:21:38.357Z,0.50
2023-01-08T00:22:01.125Z,0.50
2023-01-08T00:22:23.884Z,0.40
2023-01-08T00:22:49.027Z,0.40
2023-01-08T00:23:12.417Z,0.40
2023-01-08T00:23:35.442Z,0.40
2023-01-08T00:23:58.252Z,0.40
2023-01-08T00:24:21.019Z,0.40
2023-01-08T00:24:43.984Z,0.40
2023-01-08T00:25:08.537Z,0.40
2023-01-08T00:25:31.354Z,0.40
2023-01-08T00:25:54.100Z,0.40
2023-01-08T00:26:16.864Z,0.40
2023-01-08T00:26:40.853Z,0.40
2023-01-08T00:27:03.688Z,0.40
2023-01-08T00:27:26.522Z,0.30
2023-01-08T00:27:49.619Z,0.30
2023-01-08T00:28:12.583Z,0.30
2023-01-08T00:28:35.372Z,0.30
2023-01-08T00:28:58.085Z,0.30
2023-01-08T00:29:20.869Z,0.30
2023-01-08T00:29:43.653Z,0.30
2023-01-08T00:30:07.998Z,0.20
2023-01-08T00:30:33.485Z,0.30
2023-01-08T00:30:56.353Z,0.20
2023-01-08T00:31:19.169Z,0.20
2023-01-08T00:31:41.975Z,0.30
2023-01-08T00:32:05.075Z,0.20
2023-01-08T00:32:27.933Z,0.20
2023-01-08T00:32:50.761Z,0.20
2023-01-08T00:33:15.091Z,0.20
2023-01-08T00:33:38.431Z,0.20
2023-01-08T00:34:01.119Z,0.20
2023-01-08T00:34:24.179Z,0.20
2023-01-08T00:34:47.134Z,0.30
2023-01-08T00:35:10.334Z,0.30
2023-01-08T00:35:33.139Z,0.30
2023-01-08T00:35:55.852Z,0.30
2023-01-08T00:36:19.141Z,0.30
2023-01-08T00:36:41.918Z,0.30
2023-01-08T00:37:04.711Z,0.30
2023-01-08T00:37:28.552Z,0.30
2023-01-08T00:37:51.308Z,0.30
2023-01-08T00:38:14.074Z,0.30
2023-01-08T00:38:36.955Z,0.30
2023-01-08T00:39:00.681Z,0.30
2023-01-08T00:39:23.579Z,0.30
2023-01-08T00:39:46.434Z,0.30
2023-01-08T00:40:10.955Z,0.30
2023-01-08T00:40:34.415Z,0.30
2023-01-08T00:40:57.181Z,0.30
2023-01-08T00:41:19.929Z,0.30
2023-01-08T00:41:45.508Z,0.40
2023-01-08T00:42:08.263Z,0.40
2023-01-08T00:42:31.096Z,0.30
2023-01-08T00:42:53.770Z,0.30
2023-01-08T00:43:16.589Z,0.30
2023-01-08T00:43:39.444Z,0.30
2023-01-08T00:44:02.173Z,0.30
2023-01-08T00:44:25.063Z,0.30
2023-01-08T00:44:47.789Z,0.30
2023-01-08T00:45:11.563Z,0.30
2023-01-08T00:45:34.378Z,0.30
2023-01-08T00:45:57.294Z,0.30
2023-01-08T00:46:20.265Z,0.30
2023-01-08T00:46:43.053Z,0.20
2023-01-08T00:47:05.889Z,0.20
2023-01-08T00:47:28.754Z,0.20
2023-01-08T00:47:51.599Z,0.20
2023-01-08T00:48:15.793Z,0.10
2023-01-08T00:48:39.214Z,0.10
2023-01-08T00:49:02.404Z,0.10
2023-01-08T00:49:25.278Z,0.00
2023-01-08T00:49:48.219Z,0.10
2023-01-08T00:50:11.178Z,0.00
2023-01-08T00:50:34.022Z,0.00
2023-01-08T00:50:57.079Z,0.00
2023-01-08T00:51:19.843Z,0.00
2023-01-08T00:51:42.566Z,0.00
2023-01-08T00:52:07.654Z,-0.10
2023-01-08T00:52:30.606Z,0.00
2023-01-08T00:52:53.431Z,-0.10
2023-01-08T00:53:16.170Z,0.00
2023-01-08T00:53:39.059Z,-0.10
2023-01-08T00:54:01.773Z,0.00
2023-01-08T00:54:24.619Z,0.00
2023-01-08T00:54:47.457Z,0.00
2023-01-08T00:55:10.256Z,0.00
2023-01-08T00:55:32.976Z,0.00
2023-01-08T00:56:00.843Z,0.10
2023-01-08T00:56:23.557Z,0.10
2023-01-08T00:56:46.259Z,0.10
2023-01-08T00:57:11.282Z,0.00
2023-01-08T00:57:34.884Z,0.00
2023-01-08T00:57:58.598Z,0.00
2023-01-08T00:58:22.388Z,0.00
2023-01-08T00:58:45.250Z,0.10
2023-01-08T00:59:08.004Z,0.10
2023-01-08T00:59:33.871Z,0.00
2023-01-08T00:59:56.579Z,0.00
2023-01-08T01:00:19.468Z,0.00
2023-01-08T01:00:42.165Z,0.00
2023-01-08T01:01:10.382Z,0.00
2023-01-08T01:01:33.415Z,0.00
2023-01-08T01:01:56.604Z,0.00
2023-01-08T01:02:19.723Z,0.00
2023-01-08T01:02:42.836Z,0.00
2023-01-08T01:03:05.608Z,0.00
2023-01-08T01:03:29.848Z,-0.10
2023-01-08T01:03:52.709Z,0.00
2023-01-08T01:04:15.528Z,-0.10
2023-01-08T01:04:38.408Z,-0.10
2023-01-08T01:05:01.199Z,-0.10
2023-01-08T01:05:24.005Z,-0.20
2023-01-08T01:05:46.869Z,-0.10
2023-01-08T01:06:10.495Z,-0.20
2023-01-08T01:06:33.166Z,-0.20
2023-01-08T01:06:55.978Z,-0.20
2023-01-08T01:07:19.218Z,-0.30
2023-01-08T01:07:42.664Z,-0.30
2023-01-08T01:08:07.890Z,-0.30
2023-01-08T01:08:30.706Z,-0.30
2023-01-08T01:08:53.793Z,-0.20
2023-01-08T01:09:16.644Z,-0.30
2023-01-08T01:09:39.437Z,-0.20
2023-01-08T01:10:02.155Z,-0.20
2023-01-08T01:10:24.860Z,-0.20
2023-01-08T01:10:47.514Z,-0.20
2023-01-08T01:11:11.049Z,-0.10
2023-01-08T01:11:33.914Z,-0.10
2023-01-08T01:11:56.648Z,-0.10
2023-01-08T01:12:19.441Z,-0.10
2023-01-08T01:12:42.283Z,-0.10
2023-01-08T01:13:05.116Z,-0.10
2023-01-08T01:13:27.865Z,-0.10
2023-01-08T01:13:50.606Z,-0.10
2023-01-08T01:14:13.325Z,-0.10
2023-01-08T01:14:37.363Z,-0.10
2023-01-08T01:15:00.963Z,-0.10
2023-01-08T01:15:23.754Z,-0.10
2023-01-08T01:15:46.473Z,-0.10
2023-01-08T01:16:09.212Z,-0.10
2023-01-08T01:16:32.213Z,-0.10
2023-01-08T01:16:55.070Z,-0.10
2023-01-08T01:17:17.920Z,-0.10
2023-01-08T01:17:41.129Z,-0.10
2023-01-08T01:18:04.003Z,-0.10
2023-01-08T01:18:26.849Z,-0.10
2023-01-08T01:18:52.584Z,-0.10
2023-01-08T01:19:15.639Z,-0.10
2023-01-08T01:19:38.719Z,-0.10
2023-01-08T01:20:01.573Z,-0.10
2023-01-08T01:20:24.325Z,-0.10
2023-01-08T01:20:47.079Z,0.00
2023-01-08T01:21:22.349Z,0.00
2023-01-08T01:21:45.118Z,0.00
2023-01-08T01:22:07.940Z,-0.10
2023-01-08T01:22:32.094Z,-0.10
2023-01-08T01:22:54.882Z,0.00
2023-01-08T01:23:17.603Z,0.00
2023-01-08T01:23:40.613Z,0.00
2023-01-08T01:24:05.839Z,0.10
2023-01-08T01:24:28.762Z,0.10
2023-01-08T01:24:51.449Z,0.10
2023-01-08T01:25:14.304Z,0.10
2023-01-08T01:25:38.112Z,0.10
2023-01-08T01:26:00.801Z,0.00
2023-01-08T01:26:23.585Z,0.00
2023-01-08T01:26:46.258Z,0.00
2023-01-08T01:27:09.616Z,0.00
2023-01-08T01:27:32.323Z,0.00
2023-01-08T01:27:55.074Z,0.00
2023-01-08T01:28:18.001Z,0.00
2023-01-08T01:28:40.823Z,-0.10
2023-01-08T01:29:03.520Z,-0.10
2023-01-08T01:29:26.397Z,0.00
2023-01-08T01:29:49.194Z,-0.10
2023-01-08T01:30:12.692Z,0.00
2023-01-08T01:30:35.562Z,-0.10
2023-01-08T01:30:58.534Z,-0.10
2023-01-08T01:31:21.545Z,-0.10
2023-01-08T01:31:44.609Z,-0.10
2023-01-08T01:32:07.368Z,-0.10
2023-01-08T01:32:30.038Z,-0.10
2023-01-08T01:32:52.855Z,-0.10
2023-01-08T01:33:15.692Z,-0.10
2023-01-08T01:33:38.723Z,-0.10
2023-01-08T01:34:03.052Z,-0.10
2023-01-08T01:34:25.824Z,-0.10
2023-01-08T01:34:48.539Z,-0.10
2023-01-08T01:35:11.255Z,-0.10
2023-01-08T01:35:34.007Z,-0.10
2023-01-08T01:36:01.184Z,-0.10
2023-01-08T01:36:24.056Z,-0.10
2023-01-08T01:36:46.883Z,-0.20
2023-01-08T01:37:10.891Z,-0.20
2023-01-08T01:37:33.600Z,-0.20
2023-01-08T01:37:56.383Z,-0.20
2023-01-08T01:38:19.148Z,-0.20
2023-01-08T01:38:43.723Z,-0.20
2023-01-08T01:39:06.495Z,-0.20
2023-01-08T01:39:29.381Z,-0.20
2023-01-08T01:39:52.126Z,-0.20
2023-01-08T01:40:14.951Z,-0.20
2023-01-08T01:40:42.473Z,-0.20
2023-01-08T01:41:05.443Z,-0.20
2023-01-08T01:41:29.637Z,-0.30
2023-01-08T01:41:53.512Z,-0.30
2023-01-08T01:42:35.960Z,-0.30
2023-01-08T01:42:58.773Z,-0.30
2023-01-08T01:43:35.273Z,-0.20
2023-01-08T01:43:58.727Z,-0.30
2023-01-08T01:44:40.074Z,-0.30
2023-01-08T01:45:03.283Z,-0.30
2023-01-08T01:45:27.923Z,-0.40
2023-01-08T01:45:50.801Z,-0.40
2023-01-08T01:46:21.403Z,-0.30
2023-01-08T01:46:44.439Z,-0.30
2023-01-08T01:47:16.662Z,-0.30
2023-01-08T01:47:39.848Z,-0.30
2023-01-08T01:48:04.015Z,-0.30
2023-01-08T01:48:27.152Z,-0.30
2023-01-08T01:48:52.240Z,-0.30
2023-01-08T01:49:19.053Z,-0.30
2023-01-08T01:49:42.718Z,-0.40
2023-01-08T01:50:13.895Z,-0.40
2023-01-08T01:50:38.403Z,-0.40
2023-01-08T01:51:01.110Z,-0.40
2023-01-08T01:51:23.864Z,-0.40
2023-01-08T01:51:48.490Z,-0.40
2023-01-08T01:52:11.389Z,-0.40
2023-01-08T01:52:35.525Z,-0.30
2023-01-08T01:53:01.295Z,-0.30
2023-01-08T01:53:24.942Z,-0.30
2023-01-08T01:53:48.027Z,-0.30
2023-01-08T01:54:11.812Z,-0.30
2023-01-08T01:54:34.573Z,-0.30
2023-01-08T01:54:57.438Z,-0.30
2023-01-08T01:55:20.176Z,-0.30
2023-01-08T01:55:43.685Z,-0.30
2023-01-08T01:56:07.363Z,-0.30
2023-01-08T01:56:30.266Z,-0.30
2023-01-08T01:56:53.062Z,-0.30
2023-01-08T01:57:15.851Z,-0.30
2023-01-08T01:57:38.728Z,-0.30
2023-01-08T01:58:05.117Z,-0.30
2023-01-08T01:58:29.296Z,-0.30
2023-01-08T01:58:52.003Z,-0.30
2023-01-08T01:59:14.786Z,-0.30
2023-01-08T01:59:37.533Z,-0.20
2023-01-08T02:00:00.532Z,-0.30
2023-01-08T02:00:23.456Z,-0.20
2023-01-08T02:00:46.247Z,-0.20
2023-01-08T02:01:09.132Z,-0.20
2023-01-08T02:01:32.103Z,-0.20
2023-01-08T02:01:55.760Z,-0.20
2023-01-08T02:02:21.277Z,-0.20
2023-01-08T02:02:45.675Z,-0.10
2023-01-08T02:03:10.168Z,-0.10
2023-01-08T02:03:35.298Z,-0.10
2023-01-08T02:03:58.454Z,-0.10
2023-01-08T02:04:22.794Z,0.00
2023-01-08T02:04:45.670Z,0.00
2023-01-08T02:05:09.227Z,0.00
2023-01-08T02:05:35.064Z,0.00
2023-01-08T02:06:00.402Z,0.00
2023-01-08T02:06:29.122Z,0.00
2023-01-08T02:06:56.097Z,0.00
2023-01-08T02:07:23.034Z,0.10
2023-01-08T02:07:50.243Z,0.00
2023-01-08T02:08:16.408Z,0.10
2023-01-08T02:08:50.798Z,0.10
2023-01-08T02:09:17.882Z,0.10
2023-01-08T02:09:43.699Z,0.10
2023-01-08T02:10:10.001Z,0.20
2023-01-08T02:10:37.128Z,0.20
2023-01-08T02:11:05.477Z,0.20
2023-01-08T02:11:34.077Z,0.20
2023-01-08T02:12:18.096Z,0.10
2023-01-08T02:12:44.012Z,0.20
2023-01-08T02:13:10.491Z,0.20
2023-01-08T02:13:35.174Z,0.20
2023-01-08T02:14:01.455Z,0.20
2023-01-08T02:14:29.107Z,0.20
2023-01-08T02:15:04.911Z,0.10
2023-01-08T02:15:30.114Z,0.10
2023-01-08T02:15:55.547Z,0.10
2023-01-08T02:16:20.847Z,0.10
2023-01-08T02:16:47.296Z,0.00
2023-01-08T02:17:11.036Z,0.00
2023-01-08T02:17:36.847Z,0.00
2023-01-08T02:18:03.113Z,0.00
2023-01-08T02:18:29.512Z,0.00
2023-01-08T02:18:55.442Z,-0.10
2023-01-08T02:19:27.692Z,0.00
2023-01-08T02:19:51.861Z,-0.10
2023-01-08T02:20:17.495Z,-0.10
2023-01-08T02:20:41.378Z,-0.10
2023-01-08T02:21:05.622Z,-0.10
2023-01-08T02:21:36.489Z,-0.10
2023-01-08T02:22:05.913Z,0.00
2023-01-08T02:22:36.119Z,0.00
2023-01-08T02:23:12.711Z,0.00
2023-01-08T02:23:41.282Z,0.00
2023-01-08T02:24:06.323Z,0.00
2023-01-08T02:24:37.752Z,0.00
2023-01-08T02:25:03.058Z,0.00
2023-01-08T02:25:33.457Z,-0.10
2023-01-08T02:26:18.177Z,-0.10
2023-01-08T02:26:40.874Z,-0.20
2023-01-08T02:27:03.658Z,-0.20
2023-01-08T02:27:27.357Z,-0.10
2023-01-08T02:27:50.252Z,-0.10
2023-01-08T02:28:13.779Z,-0.10
2023-01-08T02:28:41.115Z,-0.10
2023-01-08T02:29:05.324Z,-0.20
2023-01-08T02:29:28.817Z,-0.20
2023-01-08T02:29:51.802Z,-0.20
2023-01-08T02:30:14.564Z,-0.20
2023-01-08T02:30:37.390Z,-0.10
2023-01-08T02:31:00.339Z,-0.10
2023-01-08T02:31:23.707Z,-0.20
2023-01-08T02:31:46.497Z,-0.10
2023-01-08T02:32:09.276Z,-0.20
2023-01-08T02:32:34.021Z,-0.10
2023-01-08T02:32:56.801Z,-0.10
2023-01-08T02:33:19.512Z,-0.10
2023-01-08T02:33:42.484Z,-0.10
2023-01-08T02:34:05.261Z,-0.20
2023-01-08T02:34:28.659Z,-0.20
2023-01-08T02:34:51.736Z,-0.20
2023-01-08T02:35:14.738Z,-0.20
2023-01-08T02:35:39.282Z,-0.30
2023-01-08T02:36:31.801Z,-0.30
2023-01-08T02:36:55.244Z,-0.30
2023-01-08T02:37:18.461Z,-0.40
2023-01-08T02:37:41.275Z,-0.40
2023-01-08T02:38:04.493Z,-0.40
2023-01-08T02:38:28.283Z,-0.40
2023-01-08T02:38:57.343Z,-0.30
2023-01-08T02:39:35.537Z,-0.30
2023-01-08T02:40:06.242Z,-0.40
2023-01-08T02:40:31.162Z,-0.40
2023-01-08T02:40:57.545Z,-0.40
2023-01-08T02:41:22.102Z,-0.40
2023-01-08T02:41:53.781Z,-0.40
2023-01-08T02:42:20.820Z,-0.40
2023-01-08T02:42:46.889Z,-0.40
2023-01-08T02:43:11.039Z,-0.40
2023-01-08T02:43:36.445Z,-0.40
2023-01-08T02:43:59.195Z,-0.40
2023-01-08T02:44:37.533Z,-0.40
2023-01-08T02:45:05.318Z,-0.40
2023-01-08T02:45:34.157Z,-0.40
2023-01-08T02:45:58.812Z,-0.50
2023-01-08T02:46:24.360Z,-0.50
2023-01-08T02:46:47.191Z,-0.50
2023-01-08T02:47:12.643Z,-0.50
2023-01-08T02:47:36.974Z,-0.50
2023-01-08T02:48:03.237Z,-0.50
2023-01-08T02:48:33.986Z,-0.50
2023-01-08T02:48:58.886Z,-0.50
2023-01-08T02:49:21.709Z,-0.50
2023-01-08T02:49:44.503Z,-0.60
2023-01-08T02:50:14.943Z,-0.60
2023-01-08T02:50:39.846Z,-0.60
2023-01-08T02:51:07.883Z,-0.60
2023-01-08T02:51:33.759Z,-0.60
2023-01-08T02:51:56.571Z,-0.60
2023-01-08T02:52:19.361Z,-0.60
2023-01-08T02:52:49.136Z,-0.60
2023-01-08T02:53:14.617Z,-0.60
2023-01-08T02:53:39.611Z,-0.60
2023-01-08T02:54:04.001Z,-0.60
2023-01-08T02:54:28.281Z,-0.60
2023-01-08T02:54:51.046Z,-0.60
2023-01-08T02:55:13.789Z,-0.60
2023-01-08T02:55:36.771Z,-0.60
2023-01-08T02:56:00.645Z,-0.60
2023-01-08T02:56:27.296Z,-0.60
2023-01-08T02:56:53.480Z,-0.70
2023-01-08T02:57:16.328Z,-0.60
2023-01-08T02:57:39.007Z,-0.70
2023-01-08T02:58:01.756Z,-0.60
2023-01-08T02:58:24.755Z,-0.60
2023-01-08T02:58:48.572Z,-0.60
2023-01-08T02:59:11.562Z,-0.60
2023-01-08T02:59:34.261Z,-0.60
2023-01-08T02:59:56.961Z,-0.60
2023-01-08T03:00:20.028Z,-0.60
2023-01-08T03:00:43.232Z,-0.50
2023-01-08T03:01:08.426Z,-0.50
2023-01-08T03:01:31.510Z,-0.50
2023-01-08T03:01:54.604Z,-0.50
2023-01-08T03:02:17.714Z,-0.50
2023-01-08T03:02:40.591Z,-0.40
2023-01-08T03:03:07.921Z,-0.50
2023-01-08T03:03:30.727Z,-0.50
2023-01-08T03:03:55.059Z,-0.50
2023-01-08T03:04:19.044Z,-0.40
2023-01-08T03:04:47.122Z,-0.50
2023-01-08T03:05:14.327Z,-0.40
2023-01-08T03:05:37.108Z,-0.40
2023-01-08T03:06:03.337Z,-0.40
2023-01-08T03:06:26.166Z,-0.40
2023-01-08T03:06:49.101Z,-0.50
2023-01-08T03:07:11.859Z,-0.50
2023-01-08T03:07:34.739Z,-0.50
2023-01-08T03:07:57.460Z,-0.50
2023-01-08T03:08:21.286Z,-0.50
2023-01-08T03:08:46.123Z,-0.50
2023-01-08T03:09:08.929Z,-0.50
2023-01-08T03:09:31.763Z,-0.50
2023-01-08T03:09:55.321Z,-0.50
2023-01-08T03:10:19.033Z,-0.50
2023-01-08T03:10:42.371Z,-0.50
2023-01-08T03:11:06.686Z,-0.50
2023-01-08T03:11:32.248Z,-0.50
2023-01-08T03:11:58.082Z,-0.50
2023-01-08T03:12:24.186Z,-0.50
2023-01-08T03:12:50.885Z,-0.50
2023-01-08T03:13:16.488Z,-0.50
2023-01-08T03:13:44.362Z,-0.50
2023-01-08T03:14:09.404Z,-0.60
2023-01-08T03:14:35.569Z,-0.60
2023-01-08T03:15:02.480Z,-0.60
2023-01-08T03:15:27.370Z,-0.60
2023-01-08T03:15:51.677Z,-0.70
2023-01-08T03:16:17.073Z,-0.70
2023-01-08T03:16:41.686Z,-0.70
2023-01-08T03:17:06.794Z,-0.70
2023-01-08T03:17:31.009Z,-0.70
2023-01-08T03:17:56.165Z,-0.70
2023-01-08T03:18:20.882Z,-0.70
2023-01-08T03:18:46.086Z,-0.60
2023-01-08T03:19:12.089Z,-0.60
2023-01-08T03:19:38.325Z,-0.60
2023-01-08T03:20:04.150Z,-0.60
2023-01-08T03:20:26.970Z,-0.60
2023-01-08T03:20:49.738Z,-0.60
2023-01-08T03:21:12.547Z,-0.60
2023-01-08T03:21:35.859Z,-0.60
2023-01-08T03:21:58.615Z,-0.60
2023-01-08T03:22:21.380Z,-0.70
2023-01-08T03:22:45.778Z,-0.70
2023-01-08T03:23:10.210Z,-0.70
2023-01-08T03:23:33.282Z,-0.70
2023-01-08T03:23:56.041Z,-0.70
2023-01-08T03:24:21.854Z,-0.70
2023-01-08T03:24:45.298Z,-0.70
2023-01-08T03:25:08.601Z,-0.70
2023-01-08T03:25:31.520Z,-0.80
2023-01-08T03:25:54.387Z,-0.80
2023-01-08T03:26:20.233Z,-0.80
2023-01-08T03:26:44.496Z,-0.80
2023-01-08T03:27:09.448Z,-0.80
2023-01-08T03:27:32.852Z,-0.80
2023-01-08T03:27:58.497Z,-0.80
2023-01-08T03:28:24.177Z,-0.80
2023-01-08T03:28:48.691Z,-0.80
2023-01-08T03:29:13.151Z,-0.80
2023-01-08T03:29:36.226Z,-0.80
2023-01-08T03:29:59.386Z,-0.80
2023-01-08T03:30:22.272Z,-0.80
2023-01-08T03:30:45.028Z,-0.80
2023-01-08T03:31:07.957Z,-0.80
2023-01-08T03:31:30.805Z,-0.90
2023-01-08T03:31:56.812Z,-0.90
2023-01-08T03:32:19.780Z,-0.80
2023-01-08T03:32:42.667Z,-0.90
2023-01-08T03:33:05.439Z,-0.90
2023-01-08T03:33:28.244Z,-0.90
2023-01-08T03:33:51.040Z,-0.90
2023-01-08T03:34:13.854Z,-0.90
2023-01-08T03:34:37.773Z,-0.90
2023-01-08T03:35:02.963Z,-0.90
2023-01-08T03:35:25.768Z,-0.90
2023-01-08T03:35:50.501Z,-0.90
2023-01-08T03:36:14.159Z,-0.90
2023-01-08T03:36:37.005Z,-0.80
2023-01-08T03:37:00.664Z,-0.80
2023-01-08T03:37:25.242Z,-0.80
2023-01-08T03:37:51.523Z,-0.80
2023-01-08T03:38:17.461Z,-0.80
2023-01-08T03:38:42.254Z,-0.80
2023-01-08T03:39:08.502Z,-0.90
2023-01-08T03:39:33.446Z,-0.80
2023-01-08T03:39:58.276Z,-0.80
2023-01-08T03:40:22.105Z,-0.80
2023-01-08T03:40:46.399Z,-0.80
2023-01-08T03:41:11.761Z,-0.80
2023-01-08T03:41:34.669Z,-0.80
2023-01-08T03:42:00.734Z,-0.80
2023-01-08T03:42:23.521Z,-0.80
2023-01-08T03:42:46.267Z,-0.80
2023-01-08T03:43:08.967Z,-0.80
2023-01-08T03:43:31.727Z,-0.80
2023-01-08T03:43:54.416Z,-0.80
2023-01-08T03:44:17.144Z,-0.80
2023-01-08T03:44:40.117Z,-0.80
2023-01-08T03:45:02.868Z,-0.80
2023-01-08T03:45:25.930Z,-0.90
2023-01-08T03:45:50.158Z,-0.80
2023-01-08T03:46:15.754Z,-0.80
2023-01-08T03:46:40.401Z,-0.80
2023-01-08T03:47:03.155Z,-0.80
2023-01-08T03:47:25.950Z,-0.80
2023-01-08T03:47:48.681Z,-0.80
2023-01-08T03:48:11.437Z,-0.80
2023-01-08T03:48:34.179Z,-0.70
2023-01-08T03:48:57.052Z,-0.80
2023-01-08T03:49:19.846Z,-0.80
2023-01-08T03:49:42.622Z,-0.80
2023-01-08T03:50:08.052Z,-0.80
2023-01-08T03:50:30.957Z,-0.80
2023-01-08T03:50:53.692Z,-0.80
2023-01-08T03:51:16.442Z,-0.80
2023-01-08T03:51:42.011Z,-0.80
2023-01-08T03:52:04.711Z,-0.80
2023-01-08T03:52:28.860Z,-0.80
2023-01-08T03:52:51.692Z,-0.80
2023-01-08T03:53:14.503Z,-0.80
2023-01-08T03:53:37.276Z,-0.80
2023-01-08T03:54:00.115Z,-0.80
2023-01-08T03:54:24.037Z,-0.80
2023-01-08T03:54:46.893Z,-0.80
2023-01-08T03:55:10.577Z,-0.80
2023-01-08T03:55:33.324Z,-0.80
2023-01-08T03:55:56.225Z,-0.70
2023-01-08T03:56:19.058Z,-0.70
2023-01-08T03:56:41.816Z,-0.70
2023-01-08T03:57:07.117Z,-0.70
2023-01-08T03:57:29.867Z,-0.70
2023-01-08T03:57:52.653Z,-0.70
2023-01-08T03:58:15.477Z,-0.70
2023-01-08T03:58:38.249Z,-0.70
2023-01-08T03:59:01.008Z,-0.70
2023-01-08T03:59:23.907Z,-0.70
2023-01-08T03:59:46.683Z,-0.70
2023-01-08T04:00:11.538Z,-0.70
2023-01-08T04:00:34.331Z,-0.70
2023-01-08T04:00:57.196Z,-0.70
2023-01-08T04:01:20.045Z,-0.80
2023-01-08T04:01:43.072Z,-0.80
2023-01-08T04:02:06.166Z,-0.80
2023-01-08T04:02:29.128Z,-0.70
2023-01-08T04:02:52.046Z,-0.70
2023-01-08T04:03:15.907Z,-0.70
2023-01-08T04:03:38.789Z,-0.70
2023-01-08T04:04:01.597Z,-0.70
2023-01-08T04:04:24.502Z,-0.70
2023-01-08T04:04:47.889Z,-0.70
2023-01-08T04:05:10.736Z,-0.80
2023-01-08T04:05:33.540Z,-0.80
2023-01-08T04:05:56.689Z,-0.70
2023-01-08T04:06:19.544Z,-0.80
2023-01-08T04:06:42.437Z,-0.70
2023-01-08T04:07:05.260Z,-0.70
2023-01-08T04:07:28.049Z,-0.70
2023-01-08T04:07:51.158Z,-0.70
2023-01-08T04:08:16.461Z,-0.70
2023-01-08T04:08:39.214Z,-0.70
2023-01-08T04:09:03.143Z,-0.70
2023-01-08T04:09:26.167Z,-0.70
2023-01-08T04:09:48.908Z,-0.70
2023-01-08T04:10:11.719Z,-0.70
2023-01-08T04:10:34.449Z,-0.70
2023-01-08T04:10:57.170Z,-0.80
2023-01-08T04:11:20.275Z,-0.80
2023-01-08T04:11:43.059Z,-0.80
2023-01-08T04:12:07.739Z,-0.80
2023-01-08T04:12:30.563Z,-0.80
2023-01-08T04:12:53.345Z,-0.80
2023-01-08T04:13:16.063Z,-0.80
2023-01-08T04:13:39.044Z,-0.80
2023-01-08T04:14:01.923Z,-0.80
2023-01-08T04:14:24.741Z,-0.80
2023-01-08T04:14:47.563Z,-0.80
2023-01-08T04:15:11.374Z,-0.80
2023-01-08T04:15:34.524Z,-0.70
2023-01-08T04:15:58.383Z,-0.70
2023-01-08T04:16:21.368Z,-0.80
2023-01-08T04:16:44.145Z,-0.80
2023-01-08T04:17:06.914Z,-0.80
2023-01-08T04:17:29.765Z,-0.80
2023-01-08T04:17:53.334Z,-0.90
2023-01-08T04:18:16.179Z,-0.80
2023-01-08T04:18:38.933Z,-0.80
2023-01-08T04:19:01.701Z,-0.90
2023-01-08T04:19:24.509Z,-0.90
2023-01-08T04:19:47.374Z,-0.90
2023-01-08T04:20:11.052Z,-0.90
2023-01-08T04:20:34.076Z,-0.90
2023-01-08T04:20:56.851Z,-0.90
2023-01-08T04:21:19.549Z,-0.90
2023-01-08T04:21:42.322Z,-0.90
2023-01-08T04:22:06.202Z,-0.90
2023-01-08T04:22:29.052Z,-0.90
2023-01-08T04:22:51.841Z,-0.90
2023-01-08T04:23:14.680Z,-0.90
2023-01-08T04:23:37.561Z,-0.90
2023-01-08T04:24:00.442Z,-0.90
2023-01-08T04:24:23.214Z,-0.80
2023-01-08T04:24:46.026Z,-0.80
2023-01-08T04:25:09.587Z,-0.80
2023-01-08T04:25:32.331Z,-0.80
2023-01-08T04:25:55.045Z,-0.90
2023-01-08T04:26:17.806Z,-0.80
2023-01-08T04:26:40.813Z,-0.80
2023-01-08T04:27:03.666Z,-0.80
2023-01-08T04:27:27.862Z,-0.80
2023-01-08T04:27:50.648Z,-0.80
2023-01-08T04:28:13.443Z,-0.80
2023-01-08T04:28:36.339Z,-0.80
2023-01-08T04:28:59.042Z,-0.80
2023-01-08T04:29:21.781Z,-0.80
2023-01-08T04:29:44.527Z,-0.90
2023-01-08T04:30:09.296Z,-0.90
2023-01-08T04:30:32.027Z,-1.00
2023-01-08T04:30:54.903Z,-1.00
2023-01-08T04:31:17.912Z,-1.00
2023-01-08T04:31:40.738Z,-1.00
2023-01-08T04:32:03.549Z,-0.90
2023-01-08T04:32:26.422Z,-0.90
2023-01-08T04:32:49.276Z,-0.90
2023-01-08T04:33:12.115Z,-0.90
2023-01-08T04:33:34.996Z,-0.90
2023-01-08T04:33:57.900Z,-0.90
2023-01-08T04:34:20.676Z,-0.90
2023-01-08T04:34:43.457Z,-0.90
2023-01-08T04:35:07.082Z,-0.80
2023-01-08T04:35:29.929Z,-0.90
2023-01-08T04:35:52.663Z,-0.90
2023-01-08T04:36:16.053Z,-0.90
2023-01-08T04:36:38.902Z,-0.90
2023-01-08T04:37:03.223Z,-0.90
2023-01-08T04:37:25.969Z,-0.90
2023-01-08T04:37:51.718Z,-0.90
2023-01-08T04:38:14.490Z,-0.90
2023-01-08T04:38:38.249Z,-0.90
2023-01-08T04:39:01.028Z,-0.90
2023-01-08T04:39:23.848Z,-0.80
2023-01-08T04:39:46.679Z,-0.80
2023-01-08T04:40:11.381Z,-0.80
2023-01-08T04:40:34.258Z,-0.80
2023-01-08T04:40:58.539Z,-0.80
2023-01-08T04:41:21.425Z,-0.80
2023-01-08T04:41:44.339Z,-0.80
2023-01-08T04:42:07.205Z,-0.80
2023-01-08T04:42:31.490Z,-0.90
2023-01-08T04:42:54.211Z,-0.80
2023-01-08T04:43:17.062Z,-0.90
2023-01-08T04:43:39.941Z,-0.90
2023-01-08T04:44:02.749Z,-0.80
2023-01-08T04:44:25.526Z,-0.90
2023-01-08T04:44:48.334Z,-0.90
2023-01-08T04:45:11.561Z,-0.90
2023-01-08T04:45:34.685Z,-0.90
2023-01-08T04:45:58.388Z,-0.90
2023-01-08T04:46:21.223Z,-0.90
2023-01-08T04:46:44.208Z,-0.90
2023-01-08T04:47:07.097Z,-0.90
2023-01-08T04:47:29.937Z,-0.90
2023-01-08T04:47:56.368Z,-0.90
2023-01-08T04:48:19.118Z,-0.90
2023-01-08T04:48:41.947Z,-1.00
2023-01-08T04:49:04.740Z,-1.00
2023-01-08T04:49:27.507Z,-1.00
2023-01-08T04:49:50.284Z,-1.00
2023-01-08T04:50:12.997Z,-1.00
2023-01-08T04:50:35.718Z,-1.10
2023-01-08T04:50:58.891Z,-1.10
2023-01-08T04:51:22.441Z,-1.10
2023-01-08T04:51:45.204Z,-1.10
2023-01-08T04:52:07.923Z,-1.20
2023-01-08T04:52:30.713Z,-1.20
2023-01-08T04:52:53.448Z,-1.20
2023-01-08T04:53:16.257Z,-1.20
2023-01-08T04:53:41.330Z,-1.20
2023-01-08T04:54:04.343Z,-1.20
2023-01-08T04:54:27.074Z,-1.20
2023-01-08T04:54:49.908Z,-1.20
2023-01-08T04:55:12.684Z,-1.20
2023-01-08T04:55:35.627Z,-1.20
2023-01-08T04:56:02.693Z,-1.20
2023-01-08T04:56:25.457Z,-1.20
2023-01-08T04:56:52.554Z,-1.10
2023-01-08T04:57:15.342Z,-1.10
2023-01-08T04:57:39.602Z,-1.10
2023-01-08T04:58:02.518Z,-1.10
2023-01-08T04:58:25.234Z,-1.10
2023-01-08T04:58:48.086Z,-1.00
2023-01-08T04:59:10.907Z,-1.00
2023-01-08T04:59:34.267Z,-1.00
2023-01-08T04:59:56.976Z,-1.00
2023-01-08T05:00:19.734Z,-1.00
2023-01-08T05:00:42.459Z,-1.10
2023-01-08T05:01:10.622Z,-1.10
2023-01-08T05:01:33.837Z,-1.10
2023-01-08T05:01:57.047Z,-1.00
2023-01-08T05:02:20.232Z,-1.10
2023-01-08T05:02:43.605Z,-1.10
2023-01-08T05:03:06.614Z,-1.10
2023-01-08T05:03:29.489Z,-1.10
2023-01-08T05:03:54.092Z,-1.10
2023-01-08T05:04:16.865Z,-1.00
2023-01-08T05:04:39.686Z,-1.10
2023-01-08T05:05:02.488Z,-1.10
2023-01-08T05:05:25.298Z,-1.10
2023-01-08T05:05:49.893Z,-1.10
2023-01-08T05:06:12.864Z,-1.10
2023-01-08T05:06:35.693Z,-1.00
2023-01-08T05:06:58.475Z,-1.10
2023-01-08T05:07:21.240Z,-1.10
2023-01-08T05:07:43.985Z,-1.10
2023-01-08T05:08:06.785Z,-1.10
2023-01-08T05:08:29.590Z,-1.10
2023-01-08T05:08:52.375Z,-1.10
2023-01-08T05:09:15.089Z,-1.10
2023-01-08T05:09:40.414Z,-1.00
2023-01-08T05:10:03.377Z,-1.10
2023-01-08T05:10:27.103Z,-1.10
2023-01-08T05:10:49.877Z,-1.10
2023-01-08T05:11:12.746Z,-1.10
2023-01-08T05:11:37.489Z,-1.00